sensor_id;sensor_type;location;lat;lon;timestamp;pressure;altitude;pressure_sealevel;temperature;humidity
13407;BME280;6774;48.208;10.766;2022-07-22T00:01:04;95916.88;;;18.68;81.69
13407;BME280;6774;48.208;10.766;2022-07-22T00:03:33;95936.03;;;18.46;82.06
13407;BME280;6774;48.208;10.766;2022-07-22T00:06:01;95925.34;;;18.16;83.33
13407;BME280;6774;48.208;10.766;2022-07-22T00:08:29;95934.75;;;18.01;84.19
13407;BME280;6774;48.208;10.766;2022-07-22T00:10:57;95934.63;;;17.77;85.19
13407;BME280;6774;48.208;10.766;2022-07-22T00:13:25;95927.38;;;17.84;85.40
13407;BME280;6774;48.208;10.766;2022-07-22T00:15:53;95925.88;;;18.07;84.57
13407;BME280;6774;48.208;10.766;2022-07-22T00:18:22;95922.31;;;18.13;84.38
13407;BME280;6774;48.208;10.766;2022-07-22T00:20:51;95916.72;;;18.14;84.19
13407;BME280;6774;48.208;10.766;2022-07-22T00:23:20;95916.72;;;18.14;84.26
13407;BME280;6774;48.208;10.766;2022-07-22T00:25:48;95926.59;;;18.14;84.19
13407;BME280;6774;48.208;10.766;2022-07-22T00:28:15;95916.97;;;17.95;84.91
13407;BME280;6774;48.208;10.766;2022-07-22T00:30:43;95914.53;;;17.93;85.50
13407;BME280;6774;48.208;10.766;2022-07-22T00:33:12;95912.38;;;18.02;84.85
13407;BME280;6774;48.208;10.766;2022-07-22T00:35:40;95908.75;;;17.78;86.04
13407;BME280;6774;48.208;10.766;2022-07-22T00:38:10;95923.19;;;17.88;85.79
13407;BME280;6774;48.208;10.766;2022-07-22T00:40:38;95910.72;;;18.01;85.47
13407;BME280;6774;48.208;10.766;2022-07-22T00:43:06;95913.25;;;17.96;86.13
13407;BME280;6774;48.208;10.766;2022-07-22T00:45:34;95912.00;;;17.98;86.06
13407;BME280;6774;48.208;10.766;2022-07-22T00:48:02;95909.09;;;18.00;86.04
13407;BME280;6774;48.208;10.766;2022-07-22T00:50:31;95909.41;;;17.91;86.75
13407;BME280;6774;48.208;10.766;2022-07-22T00:53:00;95903.63;;;17.95;86.31
13407;BME280;6774;48.208;10.766;2022-07-22T00:55:29;95898.00;;;18.03;85.70
13407;BME280;6774;48.208;10.766;2022-07-22T00:57:58;95902.88;;;18.06;85.47
13407;BME280;6774;48.208;10.766;2022-07-22T01:00:26;95907.41;;;18.05;85.39
13407;BME280;6774;48.208;10.766;2022-07-22T01:02:54;95904.56;;;18.00;85.83
13407;BME280;6774;48.208;10.766;2022-07-22T01:05:23;95908.28;;;17.99;85.73
13407;BME280;6774;48.208;10.766;2022-07-22T01:07:51;95904.56;;;18.00;85.82
13407;BME280;6774;48.208;10.766;2022-07-22T01:10:18;95904.13;;;18.03;85.64
13407;BME280;6774;48.208;10.766;2022-07-22T01:12:48;95893.47;;;18.03;85.71
13407;BME280;6774;48.208;10.766;2022-07-22T01:15:16;95898.00;;;18.03;85.91
13407;BME280;6774;48.208;10.766;2022-07-22T01:17:44;95901.69;;;18.02;85.80
13407;BME280;6774;48.208;10.766;2022-07-22T01:20:13;95894.28;;;18.04;85.83
13407;BME280;6774;48.208;10.766;2022-07-22T01:22:41;95899.63;;;18.04;85.82
13407;BME280;6774;48.208;10.766;2022-07-22T01:25:11;95899.38;;;18.05;85.64
13407;BME280;6774;48.208;10.766;2022-07-22T01:27:39;95893.00;;;18.06;85.81
13407;BME280;6774;48.208;10.766;2022-07-22T01:30:08;95893.81;;;18.07;85.48
13407;BME280;6774;48.208;10.766;2022-07-22T01:32:36;95899.97;;;18.07;85.48
13407;BME280;6774;48.208;10.766;2022-07-22T01:35:05;95890.31;;;18.06;85.48
13407;BME280;6774;48.208;10.766;2022-07-22T01:37:34;95892.41;;;18.04;85.55
13407;BME280;6774;48.208;10.766;2022-07-22T01:40:04;95895.91;;;18.05;85.71
13407;BME280;6774;48.208;10.766;2022-07-22T01:42:32;95895.09;;;18.04;85.45
13407;BME280;6774;48.208;10.766;2022-07-22T01:45:00;95891.84;;;18.02;85.51
13407;BME280;6774;48.208;10.766;2022-07-22T01:47:29;95899.63;;;18.04;85.40
13407;BME280;6774;48.208;10.766;2022-07-22T01:49:57;95897.59;;;17.99;85.03
13407;BME280;6774;48.208;10.766;2022-07-22T01:52:25;95891.03;;;18.02;84.32
13407;BME280;6774;48.208;10.766;2022-07-22T01:54:54;95893.69;;;18.02;83.91
13407;BME280;6774;48.208;10.766;2022-07-22T01:57:22;95885.75;;;17.95;83.71
13407;BME280;6774;48.208;10.766;2022-07-22T01:59:51;95889.06;;;17.90;83.70
13407;BME280;6774;48.208;10.766;2022-07-22T02:02:19;95893.59;;;17.90;83.80
13407;BME280;6774;48.208;10.766;2022-07-22T02:04:47;95900.38;;;17.93;83.89
13407;BME280;6774;48.208;10.766;2022-07-22T02:07:15;95897.84;;;17.79;83.67
13407;BME280;6774;48.208;10.766;2022-07-22T02:09:43;95894.84;;;17.69;83.81
13407;BME280;6774;48.208;10.766;2022-07-22T02:12:14;95883.19;;;17.63;84.12
13407;BME280;6774;48.208;10.766;2022-07-22T02:14:44;95899.19;;;17.70;83.93
13407;BME280;6774;48.208;10.766;2022-07-22T02:17:13;95894.25;;;17.67;83.99
13407;BME280;6774;48.208;10.766;2022-07-22T02:19:41;95891.06;;;17.58;84.08
13407;BME280;6774;48.208;10.766;2022-07-22T02:22:12;95891.34;;;17.32;83.04
13407;BME280;6774;48.208;10.766;2022-07-22T02:24:39;95894.09;;;17.19;83.34
13407;BME280;6774;48.208;10.766;2022-07-22T02:27:07;95882.00;;;16.98;83.58
13407;BME280;6774;48.208;10.766;2022-07-22T02:29:37;95883.03;;;16.97;83.33
13407;BME280;6774;48.208;10.766;2022-07-22T02:32:06;95880.38;;;16.97;83.31
13407;BME280;6774;48.208;10.766;2022-07-22T02:34:34;95883.84;;;16.97;83.23
13407;BME280;6774;48.208;10.766;2022-07-22T02:37:02;95880.75;;;16.75;85.11
13407;BME280;6774;48.208;10.766;2022-07-22T02:39:32;95886.09;;;16.75;84.71
13407;BME280;6774;48.208;10.766;2022-07-22T02:42:01;95878.75;;;16.64;85.23
13407;BME280;6774;48.208;10.766;2022-07-22T02:44:29;95881.00;;;16.67;84.62
13407;BME280;6774;48.208;10.766;2022-07-22T02:46:59;95880.75;;;16.75;84.31
13407;BME280;6774;48.208;10.766;2022-07-22T02:49:32;95878.25;;;16.81;84.44
13407;BME280;6774;48.208;10.766;2022-07-22T02:52:01;95885.66;;;16.78;84.58
13407;BME280;6774;48.208;10.766;2022-07-22T02:54:29;95880.41;;;16.65;85.76
13407;BME280;6774;48.208;10.766;2022-07-22T02:56:57;95884.44;;;16.43;88.12
13407;BME280;6774;48.208;10.766;2022-07-22T02:59:25;95884.50;;;16.61;86.93
13407;BME280;6774;48.208;10.766;2022-07-22T03:01:53;95886.53;;;16.66;85.90
13407;BME280;6774;48.208;10.766;2022-07-22T03:04:22;95881.22;;;16.66;85.44
13407;BME280;6774;48.208;10.766;2022-07-22T03:06:50;95886.94;;;16.69;85.64
13407;BME280;6774;48.208;10.766;2022-07-22T03:09:22;95891.56;;;16.49;86.12
13407;BME280;6774;48.208;10.766;2022-07-22T03:11:50;95886.28;;;16.42;85.95
13407;BME280;6774;48.208;10.766;2022-07-22T03:14:19;95882.97;;;16.47;86.08
13407;BME280;6774;48.208;10.766;2022-07-22T03:16:48;95887.06;;;16.49;85.89
13407;BME280;6774;48.208;10.766;2022-07-22T03:19:16;95887.28;;;16.48;86.08
13407;BME280;6774;48.208;10.766;2022-07-22T03:21:49;95880.47;;;16.52;85.94
13407;BME280;6774;48.208;10.766;2022-07-22T03:24:17;95879.22;;;16.55;86.17
13407;BME280;6774;48.208;10.766;2022-07-22T03:26:45;95881.06;;;16.54;86.22
13407;BME280;6774;48.208;10.766;2022-07-22T03:29:14;95875.16;;;16.52;85.78
13407;BME280;6774;48.208;10.766;2022-07-22T03:31:42;95885.19;;;16.50;85.23
13407;BME280;6774;48.208;10.766;2022-07-22T03:34:11;95882.97;;;16.47;84.72
13407;BME280;6774;48.208;10.766;2022-07-22T03:36:47;95891.84;;;16.34;84.50
13407;BME280;6774;48.208;10.766;2022-07-22T03:39:17;95892.06;;;16.33;84.62
13407;BME280;6774;48.208;10.766;2022-07-22T03:41:47;95895.84;;;16.18;84.46
13407;BME280;6774;48.208;10.766;2022-07-22T03:44:15;95895.84;;;16.18;84.21
13407;BME280;6774;48.208;10.766;2022-07-22T03:46:43;95898.31;;;16.13;84.66
13407;BME280;6774;48.208;10.766;2022-07-22T03:49:12;95896.75;;;15.99;84.83
13407;BME280;6774;48.208;10.766;2022-07-22T03:51:41;95894.56;;;15.83;84.85
13407;BME280;6774;48.208;10.766;2022-07-22T03:54:09;95888.19;;;15.90;85.15
13407;BME280;6774;48.208;10.766;2022-07-22T03:56:41;95884.28;;;15.93;84.51
13407;BME280;6774;48.208;10.766;2022-07-22T03:59:09;95892.28;;;15.93;85.27
13407;BME280;6774;48.208;10.766;2022-07-22T04:01:38;95884.88;;;16.02;85.25
13407;BME280;6774;48.208;10.766;2022-07-22T04:04:08;95888.50;;;16.07;85.02
13407;BME280;6774;48.208;10.766;2022-07-22T04:06:40;95899.94;;;16.14;84.67
13407;BME280;6774;48.208;10.766;2022-07-22T04:09:16;95896.03;;;16.17;84.82
13407;BME280;6774;48.208;10.766;2022-07-22T04:11:45;95888.94;;;16.04;85.40
13407;BME280;6774;48.208;10.766;2022-07-22T04:14:13;95884.41;;;16.11;84.90
13407;BME280;6774;48.208;10.766;2022-07-22T04:16:44;95893.22;;;16.12;85.01
13407;BME280;6774;48.208;10.766;2022-07-22T04:19:12;95886.41;;;16.23;84.95
13407;BME280;6774;48.208;10.766;2022-07-22T04:21:48;95895.41;;;16.21;85.41
13407;BME280;6774;48.208;10.766;2022-07-22T04:24:18;95893.94;;;16.26;85.31
13407;BME280;6774;48.208;10.766;2022-07-22T04:26:48;95890.69;;;16.24;85.52
13407;BME280;6774;48.208;10.766;2022-07-22T04:29:16;95896.81;;;16.31;85.45
13407;BME280;6774;48.208;10.766;2022-07-22T04:31:44;95884.06;;;16.33;85.29
13407;BME280;6774;48.208;10.766;2022-07-22T04:34:15;95884.00;;;16.46;84.81
13407;BME280;6774;48.208;10.766;2022-07-22T04:36:45;95885.03;;;16.45;84.89
13407;BME280;6774;48.208;10.766;2022-07-22T04:39:13;95881.50;;;16.51;84.66
13407;BME280;6774;48.208;10.766;2022-07-22T04:41:49;95882.88;;;16.60;84.54
13407;BME280;6774;48.208;10.766;2022-07-22T04:44:18;95882.03;;;16.66;84.63
13407;BME280;6774;48.208;10.766;2022-07-22T04:46:46;95879.34;;;16.66;84.87
13407;BME280;6774;48.208;10.766;2022-07-22T04:49:14;95878.88;;;16.83;84.38
13407;BME280;6774;48.208;10.766;2022-07-22T04:51:42;95881.84;;;16.93;84.29
13407;BME280;6774;48.208;10.766;2022-07-22T04:54:16;95884.66;;;16.98;84.04
13407;BME280;6774;48.208;10.766;2022-07-22T04:56:47;95884.56;;;17.11;83.94
13407;BME280;6774;48.208;10.766;2022-07-22T04:59:17;95876.66;;;17.23;83.72
13407;BME280;6774;48.208;10.766;2022-07-22T05:01:45;95883.56;;;17.30;83.43
13407;BME280;6774;48.208;10.766;2022-07-22T05:04:13;95883.28;;;17.39;83.57
13407;BME280;6774;48.208;10.766;2022-07-22T05:06:43;95877.13;;;17.56;83.36
13407;BME280;6774;48.208;10.766;2022-07-22T05:09:11;95879.06;;;17.68;83.53
13407;BME280;6774;48.208;10.766;2022-07-22T05:11:40;95876.25;;;17.81;83.87
13407;BME280;6774;48.208;10.766;2022-07-22T05:14:08;95879.13;;;17.98;83.49
13407;BME280;6774;48.208;10.766;2022-07-22T05:16:38;95877.13;;;18.11;83.74
13407;BME280;6774;48.208;10.766;2022-07-22T05:19:06;95875.81;;;18.32;83.85
13407;BME280;6774;48.208;10.766;2022-07-22T05:21:34;95871.88;;;18.46;83.69
13407;BME280;6774;48.208;10.766;2022-07-22T05:24:03;95873.34;;;18.61;83.37
13407;BME280;6774;48.208;10.766;2022-07-22T05:26:30;95880.16;;;18.75;83.50
13407;BME280;6774;48.208;10.766;2022-07-22T05:29:00;95877.41;;;18.93;82.99
13407;BME280;6774;48.208;10.766;2022-07-22T05:31:29;95876.59;;;19.04;82.76
13407;BME280;6774;48.208;10.766;2022-07-22T05:33:58;95874.25;;;19.20;82.07
13407;BME280;6774;48.208;10.766;2022-07-22T05:36:30;95868.22;;;19.36;81.80
13407;BME280;6774;48.208;10.766;2022-07-22T05:38:58;95875.66;;;19.46;81.71
13407;BME280;6774;48.208;10.766;2022-07-22T05:41:27;95874.50;;;19.65;81.50
13407;BME280;6774;48.208;10.766;2022-07-22T05:43:56;95869.22;;;19.82;80.87
13407;BME280;6774;48.208;10.766;2022-07-22T05:46:23;95866.53;;;19.94;80.88
13407;BME280;6774;48.208;10.766;2022-07-22T05:48:52;95870.31;;;20.09;81.00
13407;BME280;6774;48.208;10.766;2022-07-22T05:51:24;95869.88;;;20.29;80.60
13407;BME280;6774;48.208;10.766;2022-07-22T05:53:52;95874.16;;;20.42;80.17
13407;BME280;6774;48.208;10.766;2022-07-22T05:56:20;95873.41;;;20.58;79.92
13407;BME280;6774;48.208;10.766;2022-07-22T05:58:48;95864.22;;;20.71;79.70
13407;BME280;6774;48.208;10.766;2022-07-22T06:01:16;95863.19;;;20.89;79.36
13407;BME280;6774;48.208;10.766;2022-07-22T06:03:44;95856.53;;;21.08;78.70
13407;BME280;6774;48.208;10.766;2022-07-22T06:06:14;95866.94;;;21.21;78.50
13407;BME280;6774;48.208;10.766;2022-07-22T06:08:44;95857.81;;;21.39;78.07
13407;BME280;6774;48.208;10.766;2022-07-22T06:11:19;95868.03;;;21.59;77.76
13407;BME280;6774;48.208;10.766;2022-07-22T06:13:47;95870.44;;;21.77;76.82
13407;BME280;6774;48.208;10.766;2022-07-22T06:16:15;95871.50;;;21.98;76.55
13407;BME280;6774;48.208;10.766;2022-07-22T06:18:48;95873.09;;;22.16;75.75
13407;BME280;6774;48.208;10.766;2022-07-22T06:21:16;95868.44;;;22.33;75.09
13407;BME280;6774;48.208;10.766;2022-07-22T06:23:46;95875.28;;;22.46;74.02
13407;BME280;6774;48.208;10.766;2022-07-22T06:26:14;95872.59;;;22.73;73.74
13407;BME280;6774;48.208;10.766;2022-07-22T06:28:42;95864.59;;;22.83;72.72
13407;BME280;6774;48.208;10.766;2022-07-22T06:31:10;95875.63;;;23.09;72.87
13407;BME280;6774;48.208;10.766;2022-07-22T06:33:38;95875.97;;;23.22;71.97
13407;BME280;6774;48.208;10.766;2022-07-22T06:36:07;95874.22;;;23.38;71.01
13407;BME280;6774;48.208;10.766;2022-07-22T06:38:36;95881.88;;;23.56;70.72
13407;BME280;6774;48.208;10.766;2022-07-22T06:41:14;95879.28;;;23.67;70.72
13407;BME280;6774;48.208;10.766;2022-07-22T06:44:09;95881.22;;;23.76;69.87
13407;BME280;6774;48.208;10.766;2022-07-22T06:46:55;95884.75;;;23.82;68.64
13407;BME280;6774;48.208;10.766;2022-07-22T06:49:23;95887.50;;;23.87;69.04
13407;BME280;6774;48.208;10.766;2022-07-22T06:51:52;95884.31;;;24.00;68.70
13407;BME280;6774;48.208;10.766;2022-07-22T06:54:20;95888.09;;;24.04;68.26
13407;BME280;6774;48.208;10.766;2022-07-22T06:56:52;95889.78;;;24.21;67.93
13407;BME280;6774;48.208;10.766;2022-07-22T06:59:25;95884.47;;;24.36;67.63
13407;BME280;6774;48.208;10.766;2022-07-22T07:01:54;95874.25;;;24.58;66.24
13407;BME280;6774;48.208;10.766;2022-07-22T07:04:24;95877.47;;;24.50;65.42
13407;BME280;6774;48.208;10.766;2022-07-22T07:06:53;95877.53;;;24.76;65.18
13407;BME280;6774;48.208;10.766;2022-07-22T07:09:36;95879.19;;;24.92;64.47
13407;BME280;6774;48.208;10.766;2022-07-22T07:12:18;95874.88;;;25.11;63.85
13407;BME280;6774;48.208;10.766;2022-07-22T07:15:16;95867.06;;;25.20;63.14
13407;BME280;6774;48.208;10.766;2022-07-22T07:17:53;95872.19;;;25.27;62.19
13407;BME280;6774;48.208;10.766;2022-07-22T07:20:21;95864.59;;;25.49;62.41
13407;BME280;6774;48.208;10.766;2022-07-22T07:22:50;95865.63;;;25.68;62.43
13407;BME280;6774;48.208;10.766;2022-07-22T07:25:19;95862.94;;;25.63;61.09
13407;BME280;6774;48.208;10.766;2022-07-22T07:27:53;95859.38;;;25.93;61.39
13407;BME280;6774;48.208;10.766;2022-07-22T07:30:43;95865.03;;;26.02;60.96
13407;BME280;6774;48.208;10.766;2022-07-22T07:33:12;95868.25;;;26.09;60.64
13407;BME280;6774;48.208;10.766;2022-07-22T07:35:40;95868.38;;;26.33;59.97
13407;BME280;6774;48.208;10.766;2022-07-22T07:38:08;95858.13;;;26.35;60.33
13407;BME280;6774;48.208;10.766;2022-07-22T07:40:39;95856.66;;;26.58;60.16
13407;BME280;6774;48.208;10.766;2022-07-22T07:43:08;95849.75;;;26.76;60.05
13407;BME280;6774;48.208;10.766;2022-07-22T07:45:37;95854.56;;;26.89;59.13
13407;BME280;6774;48.208;10.766;2022-07-22T07:48:06;95854.22;;;26.96;59.04
13407;BME280;6774;48.208;10.766;2022-07-22T07:50:36;95851.91;;;27.18;58.99
13407;BME280;6774;48.208;10.766;2022-07-22T07:53:04;95850.72;;;27.29;58.76
13407;BME280;6774;48.208;10.766;2022-07-22T07:55:33;95853.81;;;27.46;58.98
13407;BME280;6774;48.208;10.766;2022-07-22T07:58:04;95852.91;;;27.56;58.34
13407;BME280;6774;48.208;10.766;2022-07-22T08:00:35;95843.72;;;27.81;58.38
13407;BME280;6774;48.208;10.766;2022-07-22T08:03:03;95845.59;;;28.04;58.60
13407;BME280;6774;48.208;10.766;2022-07-22T08:05:34;95840.00;;;28.20;56.83
13407;BME280;6774;48.208;10.766;2022-07-22T08:08:04;95837.38;;;28.33;56.19
13407;BME280;6774;48.208;10.766;2022-07-22T08:10:42;95837.53;;;28.42;56.50
13407;BME280;6774;48.208;10.766;2022-07-22T08:13:46;95832.41;;;28.59;56.18
13407;BME280;6774;48.208;10.766;2022-07-22T08:16:34;95829.31;;;28.85;55.89
13407;BME280;6774;48.208;10.766;2022-07-22T08:19:04;95822.66;;;28.96;55.14
13407;BME280;6774;48.208;10.766;2022-07-22T08:21:32;95825.44;;;29.24;55.07
13407;BME280;6774;48.208;10.766;2022-07-22T08:24:16;95828.28;;;29.18;53.74
13407;BME280;6774;48.208;10.766;2022-07-22T08:26:44;95824.88;;;29.27;54.73
13407;BME280;6774;48.208;10.766;2022-07-22T08:29:12;95824.50;;;29.47;55.05
13407;BME280;6774;48.208;10.766;2022-07-22T08:31:41;95821.94;;;29.69;54.51
13407;BME280;6774;48.208;10.766;2022-07-22T08:34:12;95820.31;;;29.96;53.52
13407;BME280;6774;48.208;10.766;2022-07-22T08:36:39;95813.25;;;30.22;53.66
13407;BME280;6774;48.208;10.766;2022-07-22T08:39:10;95815.06;;;30.41;53.77
13407;BME280;6774;48.208;10.766;2022-07-22T08:41:44;95812.59;;;30.53;51.93
13407;BME280;6774;48.208;10.766;2022-07-22T08:44:12;95810.75;;;30.62;51.20
13407;BME280;6774;48.208;10.766;2022-07-22T08:46:44;95800.16;;;30.74;50.30
13407;BME280;6774;48.208;10.766;2022-07-22T08:49:18;95796.31;;;30.98;49.57
13407;BME280;6774;48.208;10.766;2022-07-22T08:52:04;95796.19;;;31.25;50.18
13407;BME280;6774;48.208;10.766;2022-07-22T08:54:38;95793.47;;;31.25;49.25
13407;BME280;6774;48.208;10.766;2022-07-22T08:57:08;95790.25;;;31.63;49.63
13407;BME280;6774;48.208;10.766;2022-07-22T08:59:49;95784.91;;;31.80;48.84
13407;BME280;6774;48.208;10.766;2022-07-22T09:02:18;95786.88;;;31.88;47.88
13407;BME280;6774;48.208;10.766;2022-07-22T09:04:53;95782.69;;;31.91;47.19
13407;BME280;6774;48.208;10.766;2022-07-22T09:07:26;95784.34;;;32.18;47.54
13407;BME280;6774;48.208;10.766;2022-07-22T09:09:58;95778.34;;;32.38;47.09
13407;BME280;6774;48.208;10.766;2022-07-22T09:13:03;95779.63;;;32.49;45.65
13407;BME280;6774;48.208;10.766;2022-07-22T09:15:57;95777.50;;;32.64;44.50
13407;BME280;6774;48.208;10.766;2022-07-22T09:19:05;95770.78;;;33.04;45.37
13407;BME280;6774;48.208;10.766;2022-07-22T09:22:00;95766.28;;;33.55;45.30
13407;BME280;6774;48.208;10.766;2022-07-22T09:24:48;95756.81;;;33.91;43.89
13407;BME280;6774;48.208;10.766;2022-07-22T09:27:29;95757.53;;;33.71;43.13
13407;BME280;6774;48.208;10.766;2022-07-22T09:30:22;95754.00;;;33.70;42.97
13407;BME280;6774;48.208;10.766;2022-07-22T09:33:08;95754.19;;;34.03;44.37
13407;BME280;6774;48.208;10.766;2022-07-22T09:35:42;95751.25;;;34.08;42.61
13407;BME280;6774;48.208;10.766;2022-07-22T09:38:20;95751.06;;;33.84;42.15
13407;BME280;6774;48.208;10.766;2022-07-22T09:40:55;95751.63;;;33.98;42.09
13407;BME280;6774;48.208;10.766;2022-07-22T09:43:23;95751.53;;;34.15;41.18
13407;BME280;6774;48.208;10.766;2022-07-22T09:45:57;95742.44;;;34.23;41.59
13407;BME280;6774;48.208;10.766;2022-07-22T09:48:45;95745.81;;;34.50;41.93
13407;BME280;6774;48.208;10.766;2022-07-22T09:51:34;95736.84;;;34.62;40.25
13407;BME280;6774;48.208;10.766;2022-07-22T09:54:29;95735.91;;;34.78;41.14
13407;BME280;6774;48.208;10.766;2022-07-22T09:56:58;95729.34;;;34.92;39.68
13407;BME280;6774;48.208;10.766;2022-07-22T09:59:26;95726.88;;;35.11;40.84
13407;BME280;6774;48.208;10.766;2022-07-22T10:02:16;95726.22;;;35.14;40.64
13407;BME280;6774;48.208;10.766;2022-07-22T10:04:46;95737.91;;;35.35;40.76
13407;BME280;6774;48.208;10.766;2022-07-22T10:07:17;95725.88;;;35.28;39.72
13407;BME280;6774;48.208;10.766;2022-07-22T10:09:46;95724.63;;;35.13;39.29
13407;BME280;6774;48.208;10.766;2022-07-22T10:12:15;95718.38;;;34.92;38.40
13407;BME280;6774;48.208;10.766;2022-07-22T10:14:44;95721.97;;;35.04;39.25
13407;BME280;6774;48.208;10.766;2022-07-22T10:17:13;95718.69;;;35.23;38.55
13407;BME280;6774;48.208;10.766;2022-07-22T10:19:45;95714.47;;;34.93;38.39
13407;BME280;6774;48.208;10.766;2022-07-22T10:22:51;95719.16;;;34.92;38.92
13407;BME280;6774;48.208;10.766;2022-07-22T10:25:28;95708.25;;;35.04;38.82
13407;BME280;6774;48.208;10.766;2022-07-22T10:27:59;95718.75;;;35.02;37.75
13407;BME280;6774;48.208;10.766;2022-07-22T10:30:31;95719.16;;;35.38;39.06
13407;BME280;6774;48.208;10.766;2022-07-22T10:33:08;95716.44;;;35.74;39.25
13407;BME280;6774;48.208;10.766;2022-07-22T10:35:38;95714.28;;;36.04;40.17
13407;BME280;6774;48.208;10.766;2022-07-22T10:38:20;95711.13;;;36.30;37.51
13407;BME280;6774;48.208;10.766;2022-07-22T10:40:51;95707.72;;;36.21;36.71
13407;BME280;6774;48.208;10.766;2022-07-22T10:43:21;95700.53;;;36.16;36.79
13407;BME280;6774;48.208;10.766;2022-07-22T10:45:51;95706.19;;;35.96;37.20
13407;BME280;6774;48.208;10.766;2022-07-22T10:48:23;95703.66;;;35.90;35.94
13407;BME280;6774;48.208;10.766;2022-07-22T10:50:53;95696.31;;;36.07;37.68
13407;BME280;6774;48.208;10.766;2022-07-22T10:53:38;95693.41;;;36.40;36.93
13407;BME280;6774;48.208;10.766;2022-07-22T10:56:12;95690.09;;;36.62;37.11
13407;BME280;6774;48.208;10.766;2022-07-22T10:58:43;95692.25;;;36.41;36.64
13407;BME280;6774;48.208;10.766;2022-07-22T11:01:14;95690.44;;;36.21;37.09
13407;BME280;6774;48.208;10.766;2022-07-22T11:03:43;95683.97;;;35.64;36.67
13407;BME280;6774;48.208;10.766;2022-07-22T11:06:20;95680.41;;;36.12;37.79
13407;BME280;6774;48.208;10.766;2022-07-22T11:08:51;95691.91;;;36.42;37.75
13407;BME280;6774;48.208;10.766;2022-07-22T11:11:36;95682.06;;;36.69;38.02
13407;BME280;6774;48.208;10.766;2022-07-22T11:14:14;95674.31;;;36.87;36.45
13407;BME280;6774;48.208;10.766;2022-07-22T11:16:44;95676.28;;;37.02;35.91
13407;BME280;6774;48.208;10.766;2022-07-22T11:19:12;95675.06;;;37.16;36.26
13407;BME280;6774;48.208;10.766;2022-07-22T11:21:40;95661.00;;;37.21;35.54
13407;BME280;6774;48.208;10.766;2022-07-22T11:24:12;95663.16;;;37.12;35.24
13407;BME280;6774;48.208;10.766;2022-07-22T11:26:42;95655.25;;;36.94;35.46
13407;BME280;6774;48.208;10.766;2022-07-22T11:29:16;95652.31;;;36.87;37.58
13407;BME280;6774;48.208;10.766;2022-07-22T11:31:44;95658.31;;;36.77;36.14
13407;BME280;6774;48.208;10.766;2022-07-22T11:34:14;95655.31;;;36.14;34.95
13407;BME280;6774;48.208;10.766;2022-07-22T11:36:45;95655.53;;;36.09;35.71
13407;BME280;6774;48.208;10.766;2022-07-22T11:39:18;95652.91;;;34.90;37.46
13407;BME280;6774;48.208;10.766;2022-07-22T11:41:47;95654.91;;;35.39;38.19
13407;BME280;6774;48.208;10.766;2022-07-22T11:44:18;95639.59;;;35.50;37.67
13407;BME280;6774;48.208;10.766;2022-07-22T11:46:46;95647.34;;;35.72;38.53
13407;BME280;6774;48.208;10.766;2022-07-22T11:49:15;95639.38;;;35.67;37.06
13407;BME280;6774;48.208;10.766;2022-07-22T11:51:44;95640.75;;;35.61;37.55
13407;BME280;6774;48.208;10.766;2022-07-22T11:54:14;95633.19;;;35.46;36.98
13407;BME280;6774;48.208;10.766;2022-07-22T11:56:42;95635.72;;;35.51;37.51
13407;BME280;6774;48.208;10.766;2022-07-22T11:59:12;95624.97;;;35.58;37.03
13407;BME280;6774;48.208;10.766;2022-07-22T12:01:41;95626.56;;;35.59;37.63
13407;BME280;6774;48.208;10.766;2022-07-22T12:04:10;95626.31;;;35.64;37.24
13407;BME280;6774;48.208;10.766;2022-07-22T12:06:40;95624.00;;;35.66;36.97
13407;BME280;6774;48.208;10.766;2022-07-22T12:09:10;95625.75;;;35.58;36.22
13407;BME280;6774;48.208;10.766;2022-07-22T12:11:41;95614.09;;;35.61;36.38
13407;BME280;6774;48.208;10.766;2022-07-22T12:14:11;95619.91;;;35.72;37.55
13407;BME280;6774;48.208;10.766;2022-07-22T12:16:43;95618.19;;;35.68;38.35
13407;BME280;6774;48.208;10.766;2022-07-22T12:19:12;95608.22;;;35.75;38.77
13407;BME280;6774;48.208;10.766;2022-07-22T12:21:53;95603.91;;;35.62;38.15
13407;BME280;6774;48.208;10.766;2022-07-22T12:24:30;95606.78;;;35.53;37.19
13407;BME280;6774;48.208;10.766;2022-07-22T12:27:01;95591.56;;;35.44;36.78
13407;BME280;6774;48.208;10.766;2022-07-22T12:29:30;95585.63;;;35.05;35.46
13407;BME280;6774;48.208;10.766;2022-07-22T12:32:01;95585.03;;;34.99;36.77
13407;BME280;6774;48.208;10.766;2022-07-22T12:34:31;95589.25;;;34.97;38.60
13407;BME280;6774;48.208;10.766;2022-07-22T12:37:00;95583.25;;;34.83;37.67
13407;BME280;6774;48.208;10.766;2022-07-22T12:39:29;95593.50;;;34.61;38.08
13407;BME280;6774;48.208;10.766;2022-07-22T12:41:57;95583.69;;;34.60;37.89
13407;BME280;6774;48.208;10.766;2022-07-22T12:44:26;95580.50;;;34.58;38.38
13407;BME280;6774;48.208;10.766;2022-07-22T12:47:01;95575.09;;;34.49;38.16
13407;BME280;6774;48.208;10.766;2022-07-22T12:49:28;95577.50;;;34.51;36.58
13407;BME280;6774;48.208;10.766;2022-07-22T12:52:07;95578.66;;;34.50;37.61
13407;BME280;6774;48.208;10.766;2022-07-22T12:54:36;95574.06;;;34.42;36.90
13407;BME280;6774;48.208;10.766;2022-07-22T12:57:05;95569.75;;;34.53;39.57
13407;BME280;6774;48.208;10.766;2022-07-22T12:59:35;95561.06;;;34.63;37.00
13407;BME280;6774;48.208;10.766;2022-07-22T13:02:03;95558.78;;;34.53;36.93
13407;BME280;6774;48.208;10.766;2022-07-22T13:04:32;95561.31;;;34.37;37.01
13407;BME280;6774;48.208;10.766;2022-07-22T13:07:00;95566.25;;;34.32;37.61
13407;BME280;6774;48.208;10.766;2022-07-22T13:09:30;95553.88;;;34.26;37.25
13407;BME280;6774;48.208;10.766;2022-07-22T13:11:59;95558.03;;;34.32;37.67
13407;BME280;6774;48.208;10.766;2022-07-22T13:14:27;95547.34;;;34.39;38.88
13407;BME280;6774;48.208;10.766;2022-07-22T13:17:03;95548.50;;;34.50;36.50
13407;BME280;6774;48.208;10.766;2022-07-22T13:19:31;95546.78;;;34.45;36.07
13407;BME280;6774;48.208;10.766;2022-07-22T13:21:59;95546.78;;;34.45;36.66